Time;durP1;ratioP1;P1;durP2;ratioP2;P2;SDS_P1;SDS_P2;PMS_P1;PMS_P2;Temp;Humidity;BMP_temperature;BMP_pressure;BME280_temperature;BME280_humidity;BME280_pressure;Samples;Min_cycle;Max_cycle;Signal;HPM_P1;HPM_P2
2023/03/02 00:02:04;;;;;;;11.70;4.73;;;0.60;99.60;;;;;;5043285;28;20025;-66
2023/03/02 00:04:39;;;;;;;13.50;4.17;;;0.50;99.70;;;;;;5047823;28;20040;-66
2023/03/02 00:07:11;;;;;;;8.57;3.93;;;0.50;99.60;;;;;;5046420;28;20021;-65
2023/03/02 00:09:37;;;;;;;11.65;4.35;;;0.50;99.60;;;;;;5068589;28;20021;-65
2023/03/02 00:12:03;;;;;;;11.57;4.43;;;0.50;99.40;;;;;;5045596;28;20032;-66
2023/03/02 00:14:29;;;;;;;7.50;3.95;;;0.50;99.40;;;;;;5038751;28;20032;-66
2023/03/02 00:16:55;;;;;;;11.05;4.22;;;0.60;99.10;;;;;;5045425;28;20101;-66
2023/03/02 00:19:20;;;;;;;10.05;3.90;;;0.70;98.90;;;;;;5046014;28;20112;-65
2023/03/02 00:21:46;;;;;;;10.20;3.97;;;0.80;98.60;;;;;;5042570;28;20029;-64
2023/03/02 00:24:14;;;;;;;12.27;4.25;;;0.90;98.30;;;;;;5043980;28;20021;-66
2023/03/02 00:26:40;;;;;;;9.02;3.80;;;1.00;98.10;;;;;;5044951;28;20021;-66
2023/03/02 00:29:06;;;;;;;7.13;4.20;;;1.00;98.20;;;;;;5044200;28;20025;-66
2023/03/02 00:31:32;;;;;;;10.32;3.92;;;0.90;98.20;;;;;;5048024;28;20031;-64
2023/03/02 00:33:58;;;;;;;7.40;3.97;;;0.90;98.30;;;;;;5044874;28;20037;-66
2023/03/02 00:36:24;;;;;;;17.58;4.60;;;0.80;98.40;;;;;;5045391;28;20408;-65
2023/03/02 00:38:53;;;;;;;8.43;3.97;;;0.80;98.60;;;;;;5047435;28;20542;-65
2023/03/02 00:41:23;;;;;;;9.00;4.22;;;0.80;98.80;;;;;;5040916;28;20037;-66
2023/03/02 00:43:49;;;;;;;11.53;4.13;;;0.70;98.90;;;;;;5042227;28;20428;-66
2023/03/02 00:46:18;;;;;;;10.27;3.90;;;0.70;99.10;;;;;;5044375;28;20036;-66
2023/03/02 00:48:44;;;;;;;11.95;4.35;;;0.70;99.10;;;;;;5044066;28;20092;-66
2023/03/02 00:51:10;;;;;;;10.53;4.43;;;0.70;99.10;;;;;;5047302;28;20103;-66
2023/03/02 00:53:36;;;;;;;8.20;4.03;;;0.60;99.10;;;;;;5034804;28;20079;-65
2023/03/02 00:56:03;;;;;;;9.23;4.50;;;0.70;99.20;;;;;;5050127;28;20037;-65
2023/03/02 00:58:29;;;;;;;16.53;4.70;;;0.70;99.10;;;;;;5047498;28;20036;-64
2023/03/02 01:00:55;;;;;;;14.60;4.93;;;0.70;99.10;;;;;;5049920;28;20104;-64
2023/03/02 01:03:21;;;;;;;12.60;4.50;;;0.80;99.00;;;;;;5049854;28;20432;-67
2023/03/02 01:05:47;;;;;;;9.57;4.83;;;0.80;99.10;;;;;;5050731;28;20040;-65
2023/03/02 01:08:13;;;;;;;12.65;4.47;;;0.80;99.30;;;;;;5047508;28;20495;-65
2023/03/02 01:10:39;;;;;;;9.25;4.25;;;0.70;99.40;;;;;;5042918;28;20087;-64
2023/03/02 01:13:05;;;;;;;11.70;4.20;;;0.70;99.70;;;;;;5048793;28;20115;-66
2023/03/02 01:15:32;;;;;;;14.37;4.33;;;0.60;99.90;;;;;;5066771;28;20036;-66
2023/03/02 01:17:59;;;;;;;10.20;4.67;;;0.50;99.90;;;;;;5054359;28;20025;-66
2023/03/02 01:20:24;;;;;;;9.03;4.33;;;0.40;99.90;;;;;;5050230;28;20032;-65
2023/03/02 01:22:50;;;;;;;8.97;3.90;;;0.40;99.90;;;;;;5048095;28;20021;-65
2023/03/02 01:25:16;;;;;;;8.83;4.17;;;0.30;99.90;;;;;;5050787;28;20630;-65
2023/03/02 01:27:41;;;;;;;9.03;5.00;;;0.20;99.90;;;;;;5056768;28;20036;-67
2023/03/02 01:30:07;;;;;;;7.93;4.37;;;0.10;99.90;;;;;;5057260;28;20017;-66
2023/03/02 01:32:33;;;;;;;12.57;4.97;;;0.10;99.90;;;;;;5050175;28;20025;-65
2023/03/02 01:34:59;;;;;;;13.37;4.33;;;0.00;99.90;;;;;;5042142;28;20104;-67
2023/03/02 01:37:24;;;;;;;10.70;3.90;;;0.10;99.90;;;;;;5040860;28;20111;-66
2023/03/02 01:39:50;;;;;;;11.73;4.17;;;0.10;99.90;;;;;;5043669;28;20022;-66
2023/03/02 01:45:54;;;;;;;10.57;4.40;;;0.20;99.90;;;;;;5049530;28;20438;-68
2023/03/02 01:48:26;;;;;;;14.00;4.90;;;0.20;99.90;;;;;;5034856;28;20450;-65
2023/03/02 01:50:52;;;;;;;8.63;4.07;;;0.20;99.90;;;;;;5044806;28;20025;-66
2023/03/02 01:53:20;;;;;;;8.70;4.07;;;0.20;99.90;;;;;;5048802;28;20036;-65
2023/03/02 01:55:46;;;;;;;7.87;3.90;;;0.20;99.90;;;;;;5039666;28;20542;-66
2023/03/02 01:58:15;;;;;;;8.13;3.87;;;0.20;99.90;;;;;;5053607;28;20048;-66
2023/03/02 02:00:41;;;;;;;8.27;3.97;;;0.30;99.90;;;;;;5058587;28;20063;-65
2023/03/02 02:03:22;;;;;;;9.27;4.63;;;0.30;99.90;;;;;;5053858;28;20036;-66
2023/03/02 02:06:07;;;;;;;11.23;4.60;;;0.20;99.90;;;;;;5059662;28;20023;-65
2023/03/02 02:08:33;;;;;;;8.03;4.50;;;0.20;99.90;;;;;;5047284;28;20503;-65
2023/03/02 02:10:59;;;;;;;8.73;3.90;;;0.20;99.90;;;;;;5056816;28;20036;-67
2023/03/02 02:13:25;;;;;;;9.97;4.47;;;0.20;99.90;;;;;;5049602;28;20500;-66
2023/03/02 02:15:51;;;;;;;8.53;3.83;;;0.20;99.90;;;;;;5070445;28;20065;-65
2023/03/02 02:18:17;;;;;;;8.50;3.87;;;0.20;99.90;;;;;;5044006;28;20024;-65
2023/03/02 02:20:44;;;;;;;7.07;3.67;;;0.20;99.90;;;;;;5047725;28;20033;-65
2023/03/02 02:23:38;;;;;;;11.60;4.17;;;0.20;99.90;;;;;;5045861;28;20017;-66
2023/03/02 02:26:08;;;;;;;12.25;4.43;;;0.20;99.90;;;;;;5044903;28;20017;-65
2023/03/02 02:28:42;;;;;;;9.77;3.90;;;0.20;99.90;;;;;;5047819;28;20036;-65
2023/03/02 02:31:33;;;;;;;9.27;4.32;;;0.10;99.90;;;;;;5057517;28;20028;-66
2023/03/02 02:34:26;;;;;;;11.70;4.33;;;0.00;99.90;;;;;;5047423;28;20044;-64
2023/03/02 02:37:02;;;;;;;12.73;4.63;;;0.00;99.90;;;;;;5061291;28;20383;-66
2023/03/02 02:39:32;;;;;;;13.67;4.00;;;0.00;99.90;;;;;;5057508;28;20028;-65
2023/03/02 02:42:01;;;;;;;9.77;4.03;;;-0.10;99.90;;;;;;5042982;28;20021;-67
2023/03/02 02:44:27;;;;;;;10.03;4.57;;;-0.10;99.90;;;;;;5047753;28;20108;-65
2023/03/02 02:46:53;;;;;;;7.17;3.50;;;-0.20;99.90;;;;;;5044531;28;20120;-66
2023/03/02 02:49:27;;;;;;;9.60;3.60;;;-0.30;99.90;;;;;;5050891;28;20056;-66
2023/03/02 02:51:53;;;;;;;11.20;4.63;;;-0.50;99.90;;;;;;5049856;28;20024;-65
2023/03/02 02:54:19;;;;;;;10.53;4.23;;;-0.60;99.90;;;;;;5052920;28;20043;-66
2023/03/02 02:56:47;;;;;;;10.00;4.10;;;-0.50;99.90;;;;;;5063460;28;20048;-65
2023/03/02 02:59:18;;;;;;;11.03;4.33;;;-0.40;99.90;;;;;;5051180;28;20182;-65
2023/03/02 03:01:46;;;;;;;7.90;3.20;;;-0.30;99.90;;;;;;5048441;28;20029;-65
2023/03/02 03:04:16;;;;;;;9.80;4.17;;;-0.20;99.90;;;;;;5043260;28;20112;-65
2023/03/02 03:06:54;;;;;;;8.17;3.70;;;-0.10;99.90;;;;;;5049168;28;20025;-65
2023/03/02 03:09:20;;;;;;;11.03;4.27;;;-0.10;99.90;;;;;;5054830;28;20029;-65
2023/03/02 03:11:50;;;;;;;8.17;4.13;;;0.00;99.90;;;;;;5061940;28;20096;-66
2023/03/02 03:14:23;;;;;;;7.63;3.57;;;0.00;99.90;;;;;;5047563;28;20033;-66
2023/03/02 03:16:50;;;;;;;10.00;4.23;;;0.00;99.90;;;;;;5064391;28;20033;-66
2023/03/02 03:19:30;;;;;;;10.33;4.77;;;-0.10;99.90;;;;;;5047698;28;20033;-65
2023/03/02 03:21:58;;;;;;;10.23;4.20;;;-0.20;99.90;;;;;;5050772;28;20064;-66
2023/03/02 03:24:27;;;;;;;11.10;4.53;;;-0.30;99.90;;;;;;5050732;28;20040;-66
2023/03/02 03:26:53;;;;;;;9.87;4.67;;;-0.40;99.90;;;;;;5057959;28;20040;-65
2023/03/02 03:29:22;;;;;;;11.80;4.77;;;-0.50;99.90;;;;;;5049636;28;20136;-66
2023/03/02 03:31:49;;;;;;;15.73;4.57;;;-0.60;99.90;;;;;;5047392;28;20029;-66
2023/03/02 03:34:15;;;;;;;11.13;4.73;;;-0.80;99.90;;;;;;5053207;28;20036;-66
2023/03/02 03:36:42;;;;;;;10.17;4.40;;;-0.90;99.90;;;;;;5061836;28;20488;-67
2023/03/02 03:39:09;;;;;;;12.40;4.90;;;-0.90;99.90;;;;;;5047035;28;20033;-66
2023/03/02 03:41:35;;;;;;;10.20;4.67;;;-1.00;99.90;;;;;;5061269;28;20043;-66
2023/03/02 03:44:01;;;;;;;10.70;5.00;;;-1.00;99.90;;;;;;5056784;28;20051;-66
2023/03/02 03:46:27;;;;;;;10.07;3.97;;;-1.00;99.90;;;;;;5050981;28;20120;-65
2023/03/02 03:48:53;;;;;;;8.17;3.77;;;-1.00;99.90;;;;;;5049446;28;20620;-65
2023/03/02 03:51:19;;;;;;;12.73;5.13;;;-1.00;99.90;;;;;;5065582;28;20033;-64
2023/03/02 03:53:44;;;;;;;8.70;4.77;;;-0.90;99.90;;;;;;5053449;28;20032;-64
2023/03/02 03:56:10;;;;;;;9.73;4.50;;;-0.90;99.90;;;;;;5063037;28;20123;-64
2023/03/02 03:58:35;;;;;;;13.43;5.30;;;-0.90;99.90;;;;;;5022927;28;20061;-65
2023/03/02 04:01:02;;;;;;;9.60;3.77;;;-1.00;99.90;;;;;;5049839;28;20017;-65
2023/03/02 04:03:27;;;;;;;10.77;5.20;;;-1.00;99.90;;;;;;5049219;28;20028;-64
2023/03/02 04:05:53;;;;;;;10.60;5.23;;;-1.10;99.90;;;;;;5053553;28;20025;-65
2023/03/02 04:08:19;;;;;;;8.73;4.50;;;-1.10;99.90;;;;;;5061826;28;20074;-64
2023/03/02 04:10:44;;;;;;;12.90;5.23;;;-1.10;99.90;;;;;;5070124;28;20488;-65
2023/03/02 04:13:10;;;;;;;12.57;5.53;;;-1.20;99.90;;;;;;5041109;28;20456;-64
2023/03/02 04:15:37;;;;;;;10.30;4.80;;;-1.20;99.90;;;;;;5053574;28;20071;-64
2023/03/02 04:18:02;;;;;;;11.30;4.67;;;-1.20;99.90;;;;;;5052125;28;20037;-65
2023/03/02 04:20:28;;;;;;;10.83;4.83;;;-1.20;99.90;;;;;;5066551;28;20749;-63
2023/03/02 04:22:54;;;;;;;9.77;4.57;;;-1.10;99.90;;;;;;5037389;28;20403;-64
2023/03/02 04:25:23;;;;;;;10.47;4.47;;;-1.10;99.90;;;;;;5059785;28;20021;-65
2023/03/02 04:27:50;;;;;;;10.20;5.27;;;-1.00;99.90;;;;;;5050465;28;20033;-64
2023/03/02 04:30:19;;;;;;;8.27;4.43;;;-1.00;99.90;;;;;;5051617;28;20067;-64
2023/03/02 04:32:44;;;;;;;9.87;4.53;;;-1.00;99.90;;;;;;5056374;28;20033;-63
2023/03/02 04:35:11;;;;;;;9.50;4.37;;;-0.90;99.90;;;;;;5053396;28;20515;-64
2023/03/02 04:37:38;;;;;;;10.20;4.80;;;-0.90;99.90;;;;;;5057562;28;20606;-65
2023/03/02 04:40:05;;;;;;;13.37;5.30;;;-0.90;99.90;;;;;;5051731;28;20033;-65
2023/03/02 04:42:31;;;;;;;9.47;4.27;;;-0.80;99.90;;;;;;5050223;28;20033;-65
2023/03/02 04:44:56;;;;;;;11.77;5.63;;;-0.90;99.90;;;;;;5063917;28;20506;-66
2023/03/02 04:47:22;;;;;;;8.27;4.83;;;-0.90;99.90;;;;;;5051716;28;20060;-64
2023/03/02 04:49:49;;;;;;;9.20;4.53;;;-0.90;99.90;;;;;;5054816;28;20044;-62
2023/03/02 04:52:15;;;;;;;10.73;4.00;;;-0.90;99.90;;;;;;5053326;28;20550;-64
2023/03/02 04:54:41;;;;;;;12.30;4.83;;;-0.90;99.90;;;;;;5052254;28;20175;-64
2023/03/02 04:57:07;;;;;;;8.37;4.53;;;-0.90;99.90;;;;;;5048535;28;20033;-65
2023/03/02 04:59:33;;;;;;;9.50;4.97;;;-0.90;99.90;;;;;;5052253;28;20503;-65
2023/03/02 05:01:59;;;;;;;8.57;3.70;;;-1.00;99.90;;;;;;5036662;28;20025;-65
2023/03/02 05:04:26;;;;;;;11.67;4.60;;;-1.00;99.90;;;;;;5060287;28;20476;-65
2023/03/02 05:06:52;;;;;;;13.50;5.07;;;-1.00;99.90;;;;;;5049729;28;20501;-65
2023/03/02 05:09:17;;;;;;;13.37;4.77;;;-1.00;99.90;;;;;;5058451;28;20033;-66
2023/03/02 05:11:43;;;;;;;12.40;4.90;;;-1.10;99.90;;;;;;5057387;28;20107;-65
2023/03/02 05:14:11;;;;;;;12.80;4.47;;;-1.10;99.90;;;;;;5057920;28;20061;-66
2023/03/02 05:16:39;;;;;;;14.60;5.47;;;-1.20;99.90;;;;;;5061677;28;20025;-65
2023/03/02 05:19:07;;;;;;;11.33;5.37;;;-1.20;99.90;;;;;;5062805;28;20036;-68
2023/03/02 05:21:33;;;;;;;13.03;4.87;;;-1.30;99.90;;;;;;5057478;28;20399;-65
2023/03/02 05:23:59;;;;;;;12.23;5.00;;;-1.40;99.90;;;;;;5053587;28;20056;-66
2023/03/02 05:26:24;;;;;;;9.97;4.47;;;-1.40;99.90;;;;;;5049404;28;20483;-67
2023/03/02 05:28:50;;;;;;;12.60;4.83;;;-1.40;99.90;;;;;;5053481;28;20379;-67
2023/03/02 05:31:37;;;;;;;14.17;5.30;;;-1.50;99.90;;;;;;5069370;28;20445;-66
2023/03/02 05:34:06;;;;;;;9.83;4.70;;;-1.50;99.90;;;;;;5048323;28;20037;-64
2023/03/02 05:36:33;;;;;;;14.27;4.87;;;-1.50;99.90;;;;;;5064550;28;20047;-65
2023/03/02 05:38:58;;;;;;;14.37;6.17;;;-1.60;99.90;;;;;;5049461;28;20047;-67
2023/03/02 05:41:24;;;;;;;10.53;5.53;;;-1.60;99.90;;;;;;5050558;28;20033;-67
2023/03/02 05:43:50;;;;;;;12.97;5.70;;;-1.60;99.90;;;;;;5050452;28;20041;-66
2023/03/02 05:46:16;;;;;;;16.37;6.57;;;-1.60;99.90;;;;;;5060454;28;20057;-65
2023/03/02 05:48:42;;;;;;;15.43;6.43;;;-1.70;99.90;;;;;;5049019;28;20025;-67
2023/03/02 05:51:07;;;;;;;12.77;6.30;;;-1.80;99.90;;;;;;5049003;28;20040;-68
2023/03/02 05:53:33;;;;;;;12.57;5.67;;;-1.90;99.90;;;;;;5055937;28;20032;-67
2023/03/02 05:56:00;;;;;;;16.97;6.60;;;-1.90;99.90;;;;;;5060115;28;20105;-68
2023/03/02 05:58:26;;;;;;;16.10;6.50;;;-2.00;99.90;;;;;;5052171;28;20033;-67
2023/03/02 06:00:51;;;;;;;15.27;6.00;;;-2.00;99.90;;;;;;5058879;28;20025;-67
2023/03/02 06:03:17;;;;;;;10.87;5.33;;;-1.90;99.90;;;;;;5036823;28;20033;-67
2023/03/02 06:05:43;;;;;;;13.10;5.50;;;-1.90;99.90;;;;;;5051802;28;20033;-67
2023/03/02 06:08:09;;;;;;;15.90;6.17;;;-1.80;99.90;;;;;;5049893;28;20064;-68
2023/03/02 06:10:35;;;;;;;12.07;5.23;;;-1.70;99.90;;;;;;5048465;28;20506;-66
2023/03/02 06:13:00;;;;;;;12.87;5.60;;;-1.50;99.90;;;;;;5058766;28;20091;-67
2023/03/02 06:15:29;;;;;;;12.67;5.60;;;-1.50;99.90;;;;;;5046179;28;20036;-67
2023/03/02 06:17:56;;;;;;;12.43;5.47;;;-1.40;99.90;;;;;;5051936;28;20033;-67
2023/03/02 06:20:22;;;;;;;11.63;4.70;;;-1.30;99.90;;;;;;5057757;28;20039;-68
2023/03/02 06:22:48;;;;;;;14.57;5.70;;;-1.30;99.90;;;;;;5063452;28;20036;-68
2023/03/02 06:25:20;;;;;;;13.67;6.27;;;-1.20;99.90;;;;;;5061095;28;20032;-68
2023/03/02 06:27:46;;;;;;;14.67;5.90;;;-1.20;99.90;;;;;;5060932;28;20114;-66
2023/03/02 06:30:17;;;;;;;11.33;5.50;;;-1.10;99.90;;;;;;5047896;28;20037;-67
2023/03/02 06:32:42;;;;;;;17.47;6.53;;;-1.00;99.90;;;;;;5051887;28;20107;-66
2023/03/02 06:35:09;;;;;;;14.13;5.77;;;-1.00;99.90;;;;;;5054439;28;20178;-67
2023/03/02 06:37:35;;;;;;;10.07;4.40;;;-0.90;99.90;;;;;;5050005;28;20080;-67
2023/03/02 06:40:01;;;;;;;12.30;5.60;;;-0.80;99.90;;;;;;5057036;28;20505;-67
2023/03/02 06:42:27;;;;;;;13.27;5.90;;;-0.80;99.90;;;;;;5052227;28;20061;-67
2023/03/02 06:44:53;;;;;;;12.50;5.73;;;-0.80;99.90;;;;;;5050918;28;20029;-67
2023/03/02 06:47:20;;;;;;;11.83;5.47;;;-0.80;99.90;;;;;;5060252;28;20029;-66
2023/03/02 06:49:46;;;;;;;14.17;5.83;;;-0.80;99.90;;;;;;5055898;28;20040;-68
2023/03/02 06:52:13;;;;;;;10.70;5.07;;;-0.80;99.90;;;;;;5058266;28;20385;-67
2023/03/02 06:54:38;;;;;;;10.27;5.07;;;-0.80;99.90;;;;;;5046291;28;20520;-66
2023/03/02 06:57:04;;;;;;;15.87;5.47;;;-0.80;99.90;;;;;;5054782;28;20115;-68
2023/03/02 06:59:29;;;;;;;11.53;5.10;;;-0.80;99.90;;;;;;5059620;28;20069;-68
2023/03/02 07:01:55;;;;;;;10.60;5.17;;;-0.60;99.90;;;;;;5048438;28;20028;-68
2023/03/02 07:04:21;;;;;;;13.63;5.70;;;-0.50;99.90;;;;;;5058931;28;20060;-67
2023/03/02 07:06:46;;;;;;;12.90;5.20;;;-0.40;99.90;;;;;;5030090;28;20434;-66
2023/03/02 07:09:13;;;;;;;15.80;6.87;;;-0.30;99.90;;;;;;5050768;28;20052;-67
2023/03/02 07:11:38;;;;;;;12.77;6.27;;;-0.20;99.90;;;;;;5061591;28;20032;-66
2023/03/02 07:14:04;;;;;;;13.60;6.20;;;-0.20;99.90;;;;;;5050630;28;20035;-67
2023/03/02 07:16:30;;;;;;;14.93;5.97;;;-0.20;99.90;;;;;;5048517;28;20041;-68
2023/03/02 07:18:55;;;;;;;11.87;5.20;;;-0.20;99.90;;;;;;5049883;28;20502;-67
2023/03/02 07:21:21;;;;;;;14.53;5.53;;;-0.20;99.90;;;;;;5051322;28;20484;-68
2023/03/02 07:23:47;;;;;;;10.83;4.80;;;-0.20;99.90;;;;;;5048196;28;20052;-67
2023/03/02 07:26:12;;;;;;;11.77;4.93;;;-0.20;99.90;;;;;;5054025;28;20094;-67
2023/03/02 07:28:40;;;;;;;11.67;5.87;;;-0.10;99.90;;;;;;5050493;28;20029;-67
2023/03/02 07:31:07;;;;;;;10.07;4.73;;;-0.10;99.90;;;;;;5054752;28;20040;-67
2023/03/02 07:33:33;;;;;;;11.23;5.13;;;0.00;99.90;;;;;;5046580;28;20495;-67
2023/03/02 07:35:58;;;;;;;12.17;5.43;;;0.10;99.90;;;;;;5063386;28;20045;-68
2023/03/02 07:38:24;;;;;;;12.80;5.70;;;0.20;99.90;;;;;;5049888;28;20040;-67
2023/03/02 07:40:50;;;;;;;13.00;5.80;;;0.30;99.90;;;;;;5047468;28;20110;-68
2023/03/02 07:43:16;;;;;;;10.07;5.53;;;0.30;99.90;;;;;;5055608;28;20044;-68
2023/03/02 07:45:42;;;;;;;15.07;5.60;;;0.40;99.90;;;;;;5069190;28;20024;-67
2023/03/02 07:48:07;;;;;;;11.73;5.47;;;0.40;99.90;;;;;;5044410;28;20043;-67
2023/03/02 07:50:33;;;;;;;12.00;5.87;;;0.40;99.90;;;;;;5060066;28;20025;-68
2023/03/02 07:52:59;;;;;;;12.40;5.33;;;0.50;99.90;;;;;;5059776;28;20475;-68
2023/03/02 07:55:24;;;;;;;10.70;5.20;;;0.50;99.90;;;;;;5048557;28;20065;-69
2023/03/02 07:57:50;;;;;;;15.20;4.97;;;0.70;99.90;;;;;;5048915;28;20036;-64
2023/03/02 08:00:16;;;;;;;13.10;5.53;;;0.80;99.90;;;;;;5053767;28;20133;-68
2023/03/02 08:02:42;;;;;;;12.10;5.45;;;0.90;99.90;;;;;;5056511;28;20029;-68
2023/03/02 08:05:09;;;;;;;14.70;6.07;;;1.00;99.90;;;;;;5065784;28;20031;-68
2023/03/02 08:07:35;;;;;;;16.08;5.38;;;1.10;99.90;;;;;;5049918;28;20509;-67
2023/03/02 08:10:00;;;;;;;14.52;6.63;;;1.20;99.90;;;;;;5058836;28;20119;-68
2023/03/02 08:12:29;;;;;;;15.13;5.97;;;1.30;99.90;;;;;;5053115;28;20450;-67
2023/03/02 08:14:55;;;;;;;10.45;5.18;;;1.40;99.90;;;;;;5049002;28;20040;-68
2023/03/02 08:17:21;;;;;;;11.57;4.72;;;1.50;99.90;;;;;;5064899;28;20044;-68
2023/03/02 08:19:47;;;;;;;10.80;5.53;;;1.60;99.90;;;;;;5055417;28;20112;-67
2023/03/02 08:22:12;;;;;;;15.13;6.13;;;1.70;99.90;;;;;;5061675;28;20076;-69
2023/03/02 08:24:40;;;;;;;14.77;6.38;;;1.80;99.90;;;;;;5055764;28;20107;-66
2023/03/02 08:27:06;;;;;;;17.50;8.23;;;2.00;99.90;;;;;;5068877;28;20025;-66
2023/03/02 08:29:32;;;;;;;11.65;5.40;;;2.20;99.90;;;;;;5056825;28;20025;-67
2023/03/02 08:31:59;;;;;;;12.73;5.35;;;2.30;99.90;;;;;;5062968;28;20020;-68
2023/03/02 08:34:25;;;;;;;10.52;5.50;;;2.40;99.90;;;;;;5050508;28;20399;-67
2023/03/02 08:36:51;;;;;;;13.82;6.18;;;2.50;99.90;;;;;;5054684;28;20098;-67
2023/03/02 08:39:17;;;;;;;16.45;5.63;;;2.50;99.90;;;;;;5057297;28;20105;-67
2023/03/02 08:41:43;;;;;;;13.65;5.43;;;2.60;99.90;;;;;;5058890;28;20114;-68
2023/03/02 08:44:08;;;;;;;12.70;5.88;;;2.70;99.90;;;;;;5061448;28;20044;-67
2023/03/02 08:46:34;;;;;;;12.65;5.55;;;2.80;99.90;;;;;;5052309;28;20108;-67
2023/03/02 08:48:59;;;;;;;9.63;4.95;;;2.90;99.90;;;;;;5053410;28;20377;-69
2023/03/02 08:51:26;;;;;;;14.73;5.55;;;3.10;99.70;;;;;;5048231;28;20025;-67
2023/03/02 08:53:56;;;;;;;12.07;5.47;;;3.10;99.90;;;;;;5055714;28;20515;-68
2023/03/02 08:56:29;;;;;;;12.82;5.32;;;3.20;99.90;;;;;;5060305;28;20029;-64
2023/03/02 08:58:57;;;;;;;9.13;5.10;;;3.30;99.90;;;;;;5051344;28;20388;-68
2023/03/02 09:01:29;;;;;;;12.65;5.25;;;3.40;99.90;;;;;;5055382;28;20021;-66
2023/03/02 09:03:56;;;;;;;11.60;5.47;;;3.50;99.40;;;;;;5048500;28;20675;-67
2023/03/02 09:06:22;;;;;;;12.77;5.32;;;3.50;99.10;;;;;;5053601;28;20028;-68
2023/03/02 09:08:48;;;;;;;12.65;5.85;;;3.50;99.00;;;;;;5033691;28;20408;-66
2023/03/02 09:11:14;;;;;;;12.27;5.30;;;3.50;99.20;;;;;;5053346;28;20502;-66
2023/03/02 09:13:40;;;;;;;17.52;6.10;;;3.60;99.80;;;;;;5053124;28;20088;-67
2023/03/02 09:16:07;;;;;;;20.10;6.35;;;3.70;99.70;;;;;;5059457;28;20033;-67
2023/03/02 09:18:33;;;;;;;15.57;6.55;;;3.90;99.10;;;;;;5049909;28;20060;-67
2023/03/02 09:20:59;;;;;;;15.65;5.80;;;4.00;99.20;;;;;;5052708;28;20155;-67
2023/03/02 09:23:26;;;;;;;20.15;5.43;;;4.10;98.80;;;;;;5049941;28;20112;-66
2023/03/02 09:25:52;;;;;;;15.05;5.93;;;4.10;99.00;;;;;;5056909;28;20028;-66
2023/03/02 09:28:20;;;;;;;10.90;5.47;;;4.40;99.50;;;;;;5065870;28;20089;-67
2023/03/02 09:30:51;;;;;;;10.25;5.18;;;5.10;97.50;;;;;;5064811;28;20024;-67
2023/03/02 09:33:18;;;;;;;13.60;6.60;;;5.80;97.10;;;;;;5063553;28;20017;-67
2023/03/02 09:35:44;;;;;;;13.93;8.13;;;6.50;96.20;;;;;;5070990;28;20207;-68
2023/03/02 09:38:14;;;;;;;15.43;6.50;;;7.10;93.90;;;;;;5055284;28;20101;-67
2023/03/02 09:40:53;;;;;;;15.68;7.57;;;7.70;93.80;;;;;;5059333;28;20036;-69
2023/03/02 09:43:43;;;;;;;10.13;6.00;;;8.20;93.20;;;;;;5058492;28;20021;-68
2023/03/02 09:46:09;;;;;;;13.80;6.22;;;8.70;92.50;;;;;;5046000;28;20036;-68
2023/03/02 09:48:53;;;;;;;12.90;6.38;;;9.50;90.90;;;;;;5049107;28;20017;-68
2023/03/02 09:51:43;;;;;;;11.35;5.97;;;9.80;88.60;;;;;;5055420;28;20041;-67
2023/03/02 09:54:14;;;;;;;12.13;6.25;;;10.10;84.50;;;;;;5050229;28;20039;-68
2023/03/02 09:56:49;;;;;;;11.23;5.80;;;10.10;85.10;;;;;;5064433;28;20032;-67
2023/03/02 09:59:40;;;;;;;11.32;6.45;;;10.50;84.10;;;;;;5052703;28;20573;-68
2023/03/02 10:02:36;;;;;;;15.40;6.72;;;9.90;86.20;;;;;;5046786;28;20507;-68
2023/03/02 10:05:07;;;;;;;11.43;5.55;;;10.30;85.80;;;;;;5051637;28;20025;-68
2023/03/02 10:07:36;;;;;;;14.82;6.10;;;10.70;82.50;;;;;;5048053;28;20369;-66
2023/03/02 10:10:08;;;;;;;8.70;5.47;;;11.00;82.00;;;;;;5052002;28;20038;-68
2023/03/02 10:12:44;;;;;;;9.90;5.47;;;11.10;80.80;;;;;;5034820;28;20128;-66
2023/03/02 10:15:17;;;;;;;11.57;5.47;;;11.00;80.40;;;;;;5049719;28;20071;-67
2023/03/02 10:18:03;;;;;;;11.35;6.25;;;10.90;80.00;;;;;;5061430;28;20043;-67
2023/03/02 10:20:35;;;;;;;12.45;5.80;;;10.50;81.80;;;;;;5050089;28;20033;-66
2023/03/02 10:23:13;;;;;;;14.77;5.95;;;10.20;81.60;;;;;;5041503;28;20021;-67
2023/03/02 10:25:51;;;;;;;11.73;5.20;;;10.20;82.10;;;;;;5068417;28;20028;-66
2023/03/02 10:28:21;;;;;;;13.93;5.70;;;10.00;83.50;;;;;;5057864;28;20399;-67
2023/03/02 10:31:01;;;;;;;13.63;5.63;;;9.70;82.10;;;;;;5053875;28;20037;-66
2023/03/02 10:33:27;;;;;;;10.77;6.78;;;9.60;82.70;;;;;;5051397;28;22011;-66
2023/03/02 10:35:53;;;;;;;10.55;5.28;;;9.50;84.60;;;;;;5049272;28;20059;-67
2023/03/02 10:38:22;;;;;;;9.70;5.55;;;9.40;83.00;;;;;;5049848;28;20033;-66
2023/03/02 10:41:09;;;;;;;8.93;4.63;;;9.40;83.00;;;;;;5050110;28;20395;-67
2023/03/02 10:43:44;;;;;;;9.85;4.80;;;9.30;83.60;;;;;;5052301;28;20086;-66
2023/03/02 10:46:11;;;;;;;8.45;4.60;;;9.40;84.90;;;;;;5055419;28;20031;-67
2023/03/02 10:48:49;;;;;;;8.57;4.07;;;9.40;84.40;;;;;;5053559;28;20029;-67
2023/03/02 10:51:33;;;;;;;10.82;4.63;;;9.50;83.50;;;;;;5052945;28;20029;-66
2023/03/02 10:54:04;;;;;;;7.75;3.83;;;9.40;85.60;;;;;;5049500;28;20040;-67
2023/03/02 10:56:30;;;;;;;11.40;3.83;;;9.40;84.00;;;;;;5058739;28;20056;-66
2023/03/02 10:59:02;;;;;;;6.47;3.42;;;9.40;83.50;;;;;;5053915;28;20029;-68
2023/03/02 11:01:28;;;;;;;7.38;3.35;;;9.40;83.30;;;;;;5063474;28;20021;-66
2023/03/02 11:04:00;;;;;;;7.80;3.45;;;9.60;83.90;;;;;;5048597;28;20033;-66
2023/03/02 11:06:27;;;;;;;10.23;4.05;;;9.70;84.30;;;;;;5054169;28;20030;-67
2023/03/02 11:09:00;;;;;;;10.55;3.40;;;9.70;83.50;;;;;;5051611;28;20025;-68
2023/03/02 11:11:26;;;;;;;7.43;3.47;;;9.70;82.50;;;;;;5042256;28;20025;-68
2023/03/02 11:13:54;;;;;;;9.77;3.28;;;9.70;83.20;;;;;;5050232;28;20044;-66
2023/03/02 11:16:29;;;;;;;10.80;3.35;;;9.80;82.70;;;;;;5057313;28;20016;-67
2023/03/02 11:19:24;;;;;;;4.55;2.53;;;9.90;83.90;;;;;;5056524;28;20047;-67
2023/03/02 11:22:16;;;;;;;5.65;2.97;;;10.00;83.10;;;;;;5048850;28;20068;-67
2023/03/02 11:24:46;;;;;;;5.63;2.53;;;9.90;83.20;;;;;;5056524;28;20025;-67
2023/03/02 11:27:15;;;;;;;7.43;3.60;;;10.00;82.70;;;;;;5047845;28;20031;-67
2023/03/02 11:29:52;;;;;;;9.38;3.58;;;10.00;83.60;;;;;;5055311;28;20441;-66
2023/03/02 11:32:27;;;;;;;8.05;2.88;;;10.20;83.40;;;;;;5047592;28;20021;-67
2023/03/02 11:35:23;;;;;;;6.30;3.20;;;10.20;82.70;;;;;;5058077;28;20028;-64
2023/03/02 11:37:51;;;;;;;7.90;3.30;;;10.30;82.60;;;;;;5058731;28;20039;-67
2023/03/02 11:40:25;;;;;;;11.75;3.17;;;10.30;83.30;;;;;;5057869;28;20113;-68
2023/03/02 11:42:54;;;;;;;7.60;4.20;;;10.30;81.70;;;;;;5046919;28;20043;-69
2023/03/02 11:45:23;;;;;;;10.80;4.55;;;10.30;82.10;;;;;;5049161;28;20487;-67
2023/03/02 11:47:58;;;;;;;13.43;5.32;;;10.40;83.60;;;;;;5047681;28;20075;-67
2023/03/02 11:50:25;;;;;;;7.03;2.65;;;10.40;83.10;;;;;;5057744;28;20085;-66
2023/03/02 11:53:16;;;;;;;9.15;3.03;;;10.50;81.30;;;;;;5052149;28;20535;-68
2023/03/02 11:55:47;;;;;;;9.65;3.05;;;10.50;82.00;;;;;;5044596;28;20051;-68
2023/03/02 11:58:21;;;;;;;8.02;2.75;;;10.60;80.90;;;;;;5043719;28;20024;-65
2023/03/02 12:00:48;;;;;;;5.38;2.63;;;10.50;80.80;;;;;;5048994;28;20029;-67
2023/03/02 12:03:13;;;;;;;6.85;2.33;;;10.60;82.50;;;;;;5048827;28;20033;-67
2023/03/02 12:05:40;;;;;;;7.15;2.80;;;10.60;81.40;;;;;;5058475;28;20116;-68
2023/03/02 12:08:17;;;;;;;7.32;2.72;;;10.50;81.10;;;;;;5045149;28;20021;-67
2023/03/02 12:11:17;;;;;;;10.63;4.13;;;10.60;81.30;;;;;;5057219;28;20079;-67
2023/03/02 12:13:59;;;;;;;5.97;3.30;;;10.70;81.70;;;;;;5025283;28;20063;-67
2023/03/02 12:16:34;;;;;;;8.35;4.10;;;10.70;81.40;;;;;;5049969;28;20060;-67
2023/03/02 12:19:17;;;;;;;3.83;2.72;;;10.70;82.00;;;;;;5049882;28;20677;-68
2023/03/02 12:21:58;;;;;;;9.05;3.38;;;10.70;81.10;;;;;;5050932;28;20494;-66
2023/03/02 12:24:30;;;;;;;12.32;4.22;;;10.70;81.10;;;;;;5045248;28;20449;-67
2023/03/02 12:27:06;;;;;;;5.25;3.00;;;10.80;81.30;;;;;;5048718;28;20510;-66
2023/03/02 12:29:48;;;;;;;12.90;2.67;;;10.80;80.70;;;;;;5040441;28;20506;-67
2023/03/02 12:32:26;;;;;;;16.63;6.22;;;10.70;80.40;;;;;;5041611;28;20052;-66
2023/03/02 12:35:07;;;;;;;9.15;4.07;;;10.80;80.60;;;;;;5053695;28;21164;-68
2023/03/02 12:37:52;;;;;;;7.47;2.72;;;10.80;80.00;;;;;;5049748;28;20049;-67
2023/03/02 12:40:39;;;;;;;5.57;2.35;;;10.80;79.80;;;;;;5052027;28;20064;-68
2023/03/02 12:43:26;;;;;;;5.78;3.00;;;10.80;80.50;;;;;;5044062;28;20025;-67
2023/03/02 12:46:06;;;;;;;7.85;2.97;;;10.90;82.50;;;;;;5037305;28;20098;-67
2023/03/02 12:48:57;;;;;;;8.13;2.30;;;10.90;81.70;;;;;;5060055;28;20561;-68
2023/03/02 12:51:26;;;;;;;10.82;2.88;;;11.00;82.10;;;;;;5026675;28;20032;-66
2023/03/02 12:54:05;;;;;;;9.48;3.08;;;11.10;83.30;;;;;;5052007;28;20024;-68
2023/03/02 12:56:31;;;;;;;5.30;2.00;;;11.10;82.60;;;;;;5059186;28;20029;-66
2023/03/02 12:58:57;;;;;;;6.55;1.70;;;11.10;81.60;;;;;;5049221;28;20024;-67
2023/03/02 13:01:26;;;;;;;7.43;2.67;;;11.10;81.20;;;;;;5057884;28;20028;-67